<?xml version="1.0" encoding="UTF-8" standalone="no" ?>
<gpx xmlns="http://www.topografix.com/GPX/1/1" xmlns:xsi="http://www.w3.org/2001/XMLSchema-instance" xsi:schemaLocation="http://www.topografix.com/GPX/1/1 http://www.topografix.com/GPX/1/1/gpx.xsd" version="1.1" creator="VisuGPX - https://www.visugpx.com">
  <metadata>
    <name>2023-11-16-46-ST DAUNES</name>
    <desc><![CDATA[Randonnée de 11 km sans difficulté, 130 m de dénivelé positif . Des chemins et sentiers de campagne vous emmenent entre champs et domaines viticoles ]]></desc>
  </metadata>
  <trk>
    <name><![CDATA[ST DAUNES BOB 8 NOV 2023]]></name>
    <extensions>
      <line xmlns="http://www.topografix.com/GPX/gpx_style/0/2">
        <color>0000FF</color>
        <width>4</width>
      </line>
    </extensions>
    <trkseg>
      <trkpt lat="44.35629" lon="1.22975">
        <ele>165.48</ele>
        <time>2023-11-08T12:32:13Z</time>
      </trkpt>
      <trkpt lat="44.35638" lon="1.22979">
        <ele>165.48</ele>
        <time>2023-11-08T12:32:22Z</time>
      </trkpt>
      <trkpt lat="44.35647" lon="1.22972">
        <ele>165.48</ele>
        <time>2023-11-08T12:32:32Z</time>
      </trkpt>
      <trkpt lat="44.35653" lon="1.22961">
        <ele>165.48</ele>
        <time>2023-11-08T12:32:41Z</time>
      </trkpt>
      <trkpt lat="44.35663" lon="1.22957">
        <ele>165.48</ele>
        <time>2023-11-08T12:32:49Z</time>
      </trkpt>
      <trkpt lat="44.35672" lon="1.22952">
        <ele>165.48</ele>
        <time>2023-11-08T12:32:57Z</time>
      </trkpt>
      <trkpt lat="44.35675" lon="1.22924">
        <ele>165.48</ele>
        <time>2023-11-08T12:33:12Z</time>
      </trkpt>
      <trkpt lat="44.35674" lon="1.22911">
        <ele>165</ele>
        <time>2023-11-08T12:33:19Z</time>
      </trkpt>
      <trkpt lat="44.35671" lon="1.22896">
        <ele>165</ele>
        <time>2023-11-08T12:33:26Z</time>
      </trkpt>
      <trkpt lat="44.3567" lon="1.22869">
        <ele>164.52</ele>
        <time>2023-11-08T12:33:40Z</time>
      </trkpt>
      <trkpt lat="44.35674" lon="1.22855">
        <ele>164.52</ele>
        <time>2023-11-08T12:33:48Z</time>
      </trkpt>
      <trkpt lat="44.35681" lon="1.22845">
        <ele>164.52</ele>
        <time>2023-11-08T12:33:56Z</time>
      </trkpt>
      <trkpt lat="44.35687" lon="1.22833">
        <ele>164.52</ele>
        <time>2023-11-08T12:34:04Z</time>
      </trkpt>
      <trkpt lat="44.35692" lon="1.2282">
        <ele>164.52</ele>
        <time>2023-11-08T12:34:12Z</time>
      </trkpt>
      <trkpt lat="44.35698" lon="1.22808">
        <ele>164.52</ele>
        <time>2023-11-08T12:34:20Z</time>
      </trkpt>
      <trkpt lat="44.35705" lon="1.228">
        <ele>164.52</ele>
        <time>2023-11-08T12:34:27Z</time>
      </trkpt>
      <trkpt lat="44.35743" lon="1.22777">
        <ele>164.04</ele>
        <time>2023-11-08T12:34:56Z</time>
      </trkpt>
      <trkpt lat="44.35764" lon="1.22767">
        <ele>164.04</ele>
        <time>2023-11-08T12:35:10Z</time>
      </trkpt>
      <trkpt lat="44.35797" lon="1.22745">
        <ele>164.04</ele>
        <time>2023-11-08T12:35:38Z</time>
      </trkpt>
      <trkpt lat="44.35854" lon="1.22714">
        <ele>165.96</ele>
        <time>2023-11-08T12:36:23Z</time>
      </trkpt>
      <trkpt lat="44.35889" lon="1.22688">
        <ele>167.41</ele>
        <time>2023-11-08T12:36:52Z</time>
      </trkpt>
      <trkpt lat="44.35925" lon="1.22663">
        <ele>169.81</ele>
        <time>2023-11-08T12:37:23Z</time>
      </trkpt>
      <trkpt lat="44.35942" lon="1.2265">
        <ele>169.81</ele>
        <time>2023-11-08T12:37:37Z</time>
      </trkpt>
      <trkpt lat="44.35958" lon="1.22633">
        <ele>169.81</ele>
        <time>2023-11-08T12:37:51Z</time>
      </trkpt>
      <trkpt lat="44.35998" lon="1.22586">
        <ele>170.29</ele>
        <time>2023-11-08T12:38:30Z</time>
      </trkpt>
      <trkpt lat="44.36024" lon="1.22548">
        <ele>171.73</ele>
        <time>2023-11-08T12:38:58Z</time>
      </trkpt>
      <trkpt lat="44.36042" lon="1.22513">
        <ele>172.69</ele>
        <time>2023-11-08T12:39:37Z</time>
      </trkpt>
      <trkpt lat="44.36049" lon="1.22506">
        <ele>172.69</ele>
        <time>2023-11-08T12:40:11Z</time>
      </trkpt>
      <trkpt lat="44.36061" lon="1.22482">
        <ele>173.17</ele>
        <time>2023-11-08T12:40:28Z</time>
      </trkpt>
      <trkpt lat="44.36068" lon="1.22473">
        <ele>173.17</ele>
        <time>2023-11-08T12:40:36Z</time>
      </trkpt>
      <trkpt lat="44.36082" lon="1.22451">
        <ele>173.17</ele>
        <time>2023-11-08T12:40:51Z</time>
      </trkpt>
      <trkpt lat="44.3609" lon="1.22442">
        <ele>173.17</ele>
        <time>2023-11-08T12:40:58Z</time>
      </trkpt>
      <trkpt lat="44.36097" lon="1.22432">
        <ele>173.17</ele>
        <time>2023-11-08T12:41:05Z</time>
      </trkpt>
      <trkpt lat="44.36119" lon="1.22406">
        <ele>173.17</ele>
        <time>2023-11-08T12:41:26Z</time>
      </trkpt>
      <trkpt lat="44.36157" lon="1.22341">
        <ele>173.17</ele>
        <time>2023-11-08T12:42:10Z</time>
      </trkpt>
      <trkpt lat="44.36171" lon="1.22322">
        <ele>173.17</ele>
        <time>2023-11-08T12:42:24Z</time>
      </trkpt>
      <trkpt lat="44.36186" lon="1.22306">
        <ele>173.17</ele>
        <time>2023-11-08T12:42:39Z</time>
      </trkpt>
      <trkpt lat="44.36203" lon="1.22292">
        <ele>173.17</ele>
        <time>2023-11-08T12:42:54Z</time>
      </trkpt>
      <trkpt lat="44.36256" lon="1.22255">
        <ele>173.17</ele>
        <time>2023-11-08T12:43:37Z</time>
      </trkpt>
      <trkpt lat="44.36265" lon="1.22247">
        <ele>173.66</ele>
        <time>2023-11-08T12:43:45Z</time>
      </trkpt>
      <trkpt lat="44.36275" lon="1.2224">
        <ele>173.66</ele>
        <time>2023-11-08T12:43:53Z</time>
      </trkpt>
      <trkpt lat="44.36282" lon="1.22232">
        <ele>173.66</ele>
        <time>2023-11-08T12:43:58Z</time>
      </trkpt>
      <trkpt lat="44.36297" lon="1.2222">
        <ele>173.66</ele>
        <time>2023-11-08T12:44:09Z</time>
      </trkpt>
      <trkpt lat="44.36325" lon="1.22202">
        <ele>174.62</ele>
        <time>2023-11-08T12:44:36Z</time>
      </trkpt>
      <trkpt lat="44.3635" lon="1.22196">
        <ele>175.1</ele>
        <time>2023-11-08T12:44:52Z</time>
      </trkpt>
      <trkpt lat="44.36359" lon="1.2219">
        <ele>175.58</ele>
        <time>2023-11-08T12:45:00Z</time>
      </trkpt>
      <trkpt lat="44.36391" lon="1.22184">
        <ele>176.54</ele>
        <time>2023-11-08T12:45:24Z</time>
      </trkpt>
      <trkpt lat="44.3643" lon="1.22169">
        <ele>177.5</ele>
        <time>2023-11-08T12:45:54Z</time>
      </trkpt>
      <trkpt lat="44.36438" lon="1.22164">
        <ele>177.5</ele>
        <time>2023-11-08T12:46:01Z</time>
      </trkpt>
      <trkpt lat="44.36459" lon="1.22156">
        <ele>177.98</ele>
        <time>2023-11-08T12:46:17Z</time>
      </trkpt>
      <trkpt lat="44.36478" lon="1.22146">
        <ele>177.98</ele>
        <time>2023-11-08T12:46:33Z</time>
      </trkpt>
      <trkpt lat="44.36488" lon="1.22139">
        <ele>178.46</ele>
        <time>2023-11-08T12:46:42Z</time>
      </trkpt>
      <trkpt lat="44.36498" lon="1.22136">
        <ele>178.94</ele>
        <time>2023-11-08T12:46:50Z</time>
      </trkpt>
      <trkpt lat="44.36519" lon="1.22125">
        <ele>178.94</ele>
        <time>2023-11-08T12:47:05Z</time>
      </trkpt>
      <trkpt lat="44.36547" lon="1.22106">
        <ele>179.9</ele>
        <time>2023-11-08T12:47:29Z</time>
      </trkpt>
      <trkpt lat="44.36557" lon="1.22101">
        <ele>179.9</ele>
        <time>2023-11-08T12:47:37Z</time>
      </trkpt>
      <trkpt lat="44.36567" lon="1.22094">
        <ele>179.9</ele>
        <time>2023-11-08T12:47:46Z</time>
      </trkpt>
      <trkpt lat="44.36589" lon="1.22082">
        <ele>180.87</ele>
        <time>2023-11-08T12:48:02Z</time>
      </trkpt>
      <trkpt lat="44.36598" lon="1.22075">
        <ele>180.87</ele>
        <time>2023-11-08T12:48:09Z</time>
      </trkpt>
      <trkpt lat="44.36637" lon="1.22054">
        <ele>181.83</ele>
        <time>2023-11-08T12:48:42Z</time>
      </trkpt>
      <trkpt lat="44.36657" lon="1.22036">
        <ele>181.83</ele>
        <time>2023-11-08T12:48:58Z</time>
      </trkpt>
      <trkpt lat="44.36671" lon="1.22017">
        <ele>182.31</ele>
        <time>2023-11-08T12:49:12Z</time>
      </trkpt>
      <trkpt lat="44.36689" lon="1.21984">
        <ele>182.31</ele>
        <time>2023-11-08T12:49:34Z</time>
      </trkpt>
      <trkpt lat="44.36697" lon="1.21974">
        <ele>182.31</ele>
        <time>2023-11-08T12:49:42Z</time>
      </trkpt>
      <trkpt lat="44.36713" lon="1.21959">
        <ele>182.79</ele>
        <time>2023-11-08T12:49:56Z</time>
      </trkpt>
      <trkpt lat="44.36732" lon="1.21945">
        <ele>182.79</ele>
        <time>2023-11-08T12:50:12Z</time>
      </trkpt>
      <trkpt lat="44.3674" lon="1.21937">
        <ele>182.79</ele>
        <time>2023-11-08T12:50:20Z</time>
      </trkpt>
      <trkpt lat="44.3674" lon="1.21925">
        <ele>183.75</ele>
        <time>2023-11-08T12:50:27Z</time>
      </trkpt>
      <trkpt lat="44.36733" lon="1.21899">
        <ele>183.75</ele>
        <time>2023-11-08T12:50:41Z</time>
      </trkpt>
      <trkpt lat="44.36725" lon="1.21875">
        <ele>183.75</ele>
        <time>2023-11-08T12:50:55Z</time>
      </trkpt>
      <trkpt lat="44.36722" lon="1.21862">
        <ele>184.23</ele>
        <time>2023-11-08T12:51:02Z</time>
      </trkpt>
      <trkpt lat="44.36723" lon="1.21848">
        <ele>184.23</ele>
        <time>2023-11-08T12:51:09Z</time>
      </trkpt>
      <trkpt lat="44.3673" lon="1.21825">
        <ele>184.71</ele>
        <time>2023-11-08T12:51:24Z</time>
      </trkpt>
      <trkpt lat="44.36735" lon="1.21813">
        <ele>185.67</ele>
        <time>2023-11-08T12:51:33Z</time>
      </trkpt>
      <trkpt lat="44.36738" lon="1.21799">
        <ele>186.63</ele>
        <time>2023-11-08T12:51:43Z</time>
      </trkpt>
      <trkpt lat="44.36736" lon="1.21784">
        <ele>188.08</ele>
        <time>2023-11-08T12:51:52Z</time>
      </trkpt>
      <trkpt lat="44.36732" lon="1.2177">
        <ele>189.52</ele>
        <time>2023-11-08T12:52:01Z</time>
      </trkpt>
      <trkpt lat="44.36726" lon="1.2176">
        <ele>190</ele>
        <time>2023-11-08T12:52:10Z</time>
      </trkpt>
      <trkpt lat="44.36719" lon="1.21754">
        <ele>190.96</ele>
        <time>2023-11-08T12:52:19Z</time>
      </trkpt>
      <trkpt lat="44.36711" lon="1.21749">
        <ele>191.92</ele>
        <time>2023-11-08T12:52:28Z</time>
      </trkpt>
      <trkpt lat="44.36702" lon="1.21745">
        <ele>192.88</ele>
        <time>2023-11-08T12:52:37Z</time>
      </trkpt>
      <trkpt lat="44.36694" lon="1.2174">
        <ele>193.84</ele>
        <time>2023-11-08T12:52:45Z</time>
      </trkpt>
      <trkpt lat="44.36675" lon="1.21732">
        <ele>195.28</ele>
        <time>2023-11-08T12:53:02Z</time>
      </trkpt>
      <trkpt lat="44.36657" lon="1.21728">
        <ele>196.25</ele>
        <time>2023-11-08T12:53:19Z</time>
      </trkpt>
      <trkpt lat="44.36615" lon="1.21727">
        <ele>199.13</ele>
        <time>2023-11-08T12:53:53Z</time>
      </trkpt>
      <trkpt lat="44.36606" lon="1.2172">
        <ele>200.09</ele>
        <time>2023-11-08T12:54:02Z</time>
      </trkpt>
      <trkpt lat="44.36605" lon="1.21705">
        <ele>200.57</ele>
        <time>2023-11-08T12:54:11Z</time>
      </trkpt>
      <trkpt lat="44.36621" lon="1.21637">
        <ele>204.42</ele>
        <time>2023-11-08T12:54:52Z</time>
      </trkpt>
      <trkpt lat="44.36625" lon="1.21625">
        <ele>204.9</ele>
        <time>2023-11-08T12:55:00Z</time>
      </trkpt>
      <trkpt lat="44.36634" lon="1.21586">
        <ele>206.34</ele>
        <time>2023-11-08T12:55:24Z</time>
      </trkpt>
      <trkpt lat="44.36642" lon="1.21563">
        <ele>207.3</ele>
        <time>2023-11-08T12:55:40Z</time>
      </trkpt>
      <trkpt lat="44.36652" lon="1.2154">
        <ele>208.74</ele>
        <time>2023-11-08T12:55:56Z</time>
      </trkpt>
      <trkpt lat="44.36656" lon="1.21528">
        <ele>209.22</ele>
        <time>2023-11-08T12:56:04Z</time>
      </trkpt>
      <trkpt lat="44.36666" lon="1.21505">
        <ele>211.15</ele>
        <time>2023-11-08T12:56:22Z</time>
      </trkpt>
      <trkpt lat="44.36679" lon="1.21454">
        <ele>213.55</ele>
        <time>2023-11-08T12:56:54Z</time>
      </trkpt>
      <trkpt lat="44.36692" lon="1.21409">
        <ele>219.6</ele>
        <time>2023-11-08T12:58:08Z</time>
      </trkpt>
      <trkpt lat="44.3669" lon="1.21393">
        <ele>216.43</ele>
        <time>2023-11-08T12:58:16Z</time>
      </trkpt>
      <trkpt lat="44.36679" lon="1.21352">
        <ele>218.36</ele>
        <time>2023-11-08T12:58:37Z</time>
      </trkpt>
      <trkpt lat="44.36663" lon="1.21314">
        <ele>218.36</ele>
        <time>2023-11-08T12:59:01Z</time>
      </trkpt>
      <trkpt lat="44.36654" lon="1.21275">
        <ele>216.91</ele>
        <time>2023-11-08T12:59:26Z</time>
      </trkpt>
      <trkpt lat="44.36654" lon="1.2126">
        <ele>216.91</ele>
        <time>2023-11-08T12:59:35Z</time>
      </trkpt>
      <trkpt lat="44.36658" lon="1.21229">
        <ele>216.91</ele>
        <time>2023-11-08T12:59:52Z</time>
      </trkpt>
      <trkpt lat="44.36665" lon="1.21197">
        <ele>216.91</ele>
        <time>2023-11-08T13:00:11Z</time>
      </trkpt>
      <trkpt lat="44.36674" lon="1.21165">
        <ele>219.8</ele>
        <time>2023-11-08T13:00:32Z</time>
      </trkpt>
      <trkpt lat="44.36677" lon="1.2115">
        <ele>221.24</ele>
        <time>2023-11-08T13:00:42Z</time>
      </trkpt>
      <trkpt lat="44.36694" lon="1.21094">
        <ele>224.61</ele>
        <time>2023-11-08T13:01:22Z</time>
      </trkpt>
      <trkpt lat="44.36702" lon="1.21081">
        <ele>225.57</ele>
        <time>2023-11-08T13:01:33Z</time>
      </trkpt>
      <trkpt lat="44.36711" lon="1.21053">
        <ele>226.53</ele>
        <time>2023-11-08T13:01:54Z</time>
      </trkpt>
      <trkpt lat="44.36718" lon="1.21024">
        <ele>227.49</ele>
        <time>2023-11-08T13:02:13Z</time>
      </trkpt>
      <trkpt lat="44.36722" lon="1.20989">
        <ele>227.49</ele>
        <time>2023-11-08T13:02:32Z</time>
      </trkpt>
      <trkpt lat="44.36726" lon="1.20974">
        <ele>227.49</ele>
        <time>2023-11-08T13:02:40Z</time>
      </trkpt>
      <trkpt lat="44.36728" lon="1.20958">
        <ele>227.49</ele>
        <time>2023-11-08T13:02:49Z</time>
      </trkpt>
      <trkpt lat="44.36731" lon="1.20944">
        <ele>227.49</ele>
        <time>2023-11-08T13:02:57Z</time>
      </trkpt>
      <trkpt lat="44.36736" lon="1.20929">
        <ele>227.49</ele>
        <time>2023-11-08T13:03:05Z</time>
      </trkpt>
      <trkpt lat="44.36742" lon="1.20915">
        <ele>227.49</ele>
        <time>2023-11-08T13:03:15Z</time>
      </trkpt>
      <trkpt lat="44.36747" lon="1.20899">
        <ele>227.49</ele>
        <time>2023-11-08T13:03:24Z</time>
      </trkpt>
      <trkpt lat="44.36753" lon="1.20886">
        <ele>227.49</ele>
        <time>2023-11-08T13:03:32Z</time>
      </trkpt>
      <trkpt lat="44.36761" lon="1.20859">
        <ele>225.57</ele>
        <time>2023-11-08T13:03:48Z</time>
      </trkpt>
      <trkpt lat="44.36766" lon="1.2083">
        <ele>225.09</ele>
        <time>2023-11-08T13:04:04Z</time>
      </trkpt>
      <trkpt lat="44.36771" lon="1.20818">
        <ele>224.61</ele>
        <time>2023-11-08T13:04:13Z</time>
      </trkpt>
      <trkpt lat="44.36772" lon="1.20803">
        <ele>224.12</ele>
        <time>2023-11-08T13:04:20Z</time>
      </trkpt>
      <trkpt lat="44.36786" lon="1.20752">
        <ele>223.64</ele>
        <time>2023-11-08T13:04:54Z</time>
      </trkpt>
      <trkpt lat="44.36791" lon="1.20737">
        <ele>223.64</ele>
        <time>2023-11-08T13:05:03Z</time>
      </trkpt>
      <trkpt lat="44.36795" lon="1.20719">
        <ele>223.64</ele>
        <time>2023-11-08T13:05:13Z</time>
      </trkpt>
      <trkpt lat="44.36798" lon="1.20685">
        <ele>223.64</ele>
        <time>2023-11-08T13:05:34Z</time>
      </trkpt>
      <trkpt lat="44.36797" lon="1.20664">
        <ele>222.68</ele>
        <time>2023-11-08T13:06:20Z</time>
      </trkpt>
      <trkpt lat="44.368" lon="1.20649">
        <ele>222.68</ele>
        <time>2023-11-08T13:06:29Z</time>
      </trkpt>
      <trkpt lat="44.36816" lon="1.20608">
        <ele>221.72</ele>
        <time>2023-11-08T13:06:59Z</time>
      </trkpt>
      <trkpt lat="44.36824" lon="1.20576">
        <ele>220.76</ele>
        <time>2023-11-08T13:07:17Z</time>
      </trkpt>
      <trkpt lat="44.36829" lon="1.20561">
        <ele>220.28</ele>
        <time>2023-11-08T13:07:28Z</time>
      </trkpt>
      <trkpt lat="44.36836" lon="1.20551">
        <ele>220.28</ele>
        <time>2023-11-08T13:07:39Z</time>
      </trkpt>
      <trkpt lat="44.36844" lon="1.20542">
        <ele>221.72</ele>
        <time>2023-11-08T13:07:48Z</time>
      </trkpt>
      <trkpt lat="44.36865" lon="1.20525">
        <ele>222.68</ele>
        <time>2023-11-08T13:08:06Z</time>
      </trkpt>
      <trkpt lat="44.36874" lon="1.2052">
        <ele>223.64</ele>
        <time>2023-11-08T13:08:14Z</time>
      </trkpt>
      <trkpt lat="44.36882" lon="1.20514">
        <ele>224.12</ele>
        <time>2023-11-08T13:08:46Z</time>
      </trkpt>
      <trkpt lat="44.36892" lon="1.2051">
        <ele>225.09</ele>
        <time>2023-11-08T13:08:55Z</time>
      </trkpt>
      <trkpt lat="44.36904" lon="1.20503">
        <ele>226.05</ele>
        <time>2023-11-08T13:09:05Z</time>
      </trkpt>
      <trkpt lat="44.36915" lon="1.20493">
        <ele>226.53</ele>
        <time>2023-11-08T13:09:16Z</time>
      </trkpt>
      <trkpt lat="44.36938" lon="1.20482">
        <ele>227.97</ele>
        <time>2023-11-08T13:09:37Z</time>
      </trkpt>
      <trkpt lat="44.36951" lon="1.20478">
        <ele>229.41</ele>
        <time>2023-11-08T13:09:49Z</time>
      </trkpt>
      <trkpt lat="44.36964" lon="1.20469">
        <ele>230.85</ele>
        <time>2023-11-08T13:10:04Z</time>
      </trkpt>
      <trkpt lat="44.36991" lon="1.20455">
        <ele>234.7</ele>
        <time>2023-11-08T13:10:33Z</time>
      </trkpt>
      <trkpt lat="44.37001" lon="1.20454">
        <ele>236.62</ele>
        <time>2023-11-08T13:10:45Z</time>
      </trkpt>
      <trkpt lat="44.37013" lon="1.2045">
        <ele>239.02</ele>
        <time>2023-11-08T13:11:03Z</time>
      </trkpt>
      <trkpt lat="44.37026" lon="1.20447">
        <ele>240.95</ele>
        <time>2023-11-08T13:11:22Z</time>
      </trkpt>
      <trkpt lat="44.37037" lon="1.20446">
        <ele>243.35</ele>
        <time>2023-11-08T13:11:36Z</time>
      </trkpt>
      <trkpt lat="44.37048" lon="1.2045">
        <ele>246.23</ele>
        <time>2023-11-08T13:11:51Z</time>
      </trkpt>
      <trkpt lat="44.37059" lon="1.20458">
        <ele>247.68</ele>
        <time>2023-11-08T13:12:03Z</time>
      </trkpt>
      <trkpt lat="44.37069" lon="1.20463">
        <ele>249.12</ele>
        <time>2023-11-08T13:12:15Z</time>
      </trkpt>
      <trkpt lat="44.3708" lon="1.20466">
        <ele>251.04</ele>
        <time>2023-11-08T13:12:28Z</time>
      </trkpt>
      <trkpt lat="44.37089" lon="1.20474">
        <ele>252.96</ele>
        <time>2023-11-08T13:12:42Z</time>
      </trkpt>
      <trkpt lat="44.37095" lon="1.20488">
        <ele>254.41</ele>
        <time>2023-11-08T13:12:55Z</time>
      </trkpt>
      <trkpt lat="44.37104" lon="1.20505">
        <ele>260.9</ele>
        <time>2023-11-08T13:13:36Z</time>
      </trkpt>
      <trkpt lat="44.37109" lon="1.20491">
        <ele>257.29</ele>
        <time>2023-11-08T13:13:44Z</time>
      </trkpt>
      <trkpt lat="44.37109" lon="1.20478">
        <ele>255.85</ele>
        <time>2023-11-08T13:14:29Z</time>
      </trkpt>
      <trkpt lat="44.37091" lon="1.2044">
        <ele>255.37</ele>
        <time>2023-11-08T13:15:10Z</time>
      </trkpt>
      <trkpt lat="44.37086" lon="1.20427">
        <ele>255.37</ele>
        <time>2023-11-08T13:15:19Z</time>
      </trkpt>
      <trkpt lat="44.37084" lon="1.20414">
        <ele>256.81</ele>
        <time>2023-11-08T13:15:28Z</time>
      </trkpt>
      <trkpt lat="44.37083" lon="1.20383">
        <ele>258.73</ele>
        <time>2023-11-08T13:15:47Z</time>
      </trkpt>
      <trkpt lat="44.37086" lon="1.20368">
        <ele>259.21</ele>
        <time>2023-11-08T13:15:56Z</time>
      </trkpt>
      <trkpt lat="44.37091" lon="1.20357">
        <ele>260.17</ele>
        <time>2023-11-08T13:16:06Z</time>
      </trkpt>
      <trkpt lat="44.37099" lon="1.20346">
        <ele>261.62</ele>
        <time>2023-11-08T13:16:16Z</time>
      </trkpt>
      <trkpt lat="44.37107" lon="1.20338">
        <ele>263.06</ele>
        <time>2023-11-08T13:17:28Z</time>
      </trkpt>
      <trkpt lat="44.37114" lon="1.20329">
        <ele>263.06</ele>
        <time>2023-11-08T13:17:36Z</time>
      </trkpt>
      <trkpt lat="44.3712" lon="1.20318">
        <ele>263.06</ele>
        <time>2023-11-08T13:17:44Z</time>
      </trkpt>
      <trkpt lat="44.37125" lon="1.20306">
        <ele>263.54</ele>
        <time>2023-11-08T13:17:52Z</time>
      </trkpt>
      <trkpt lat="44.37141" lon="1.20253">
        <ele>264.98</ele>
        <time>2023-11-08T13:18:26Z</time>
      </trkpt>
      <trkpt lat="44.37152" lon="1.20226">
        <ele>265.46</ele>
        <time>2023-11-08T13:18:43Z</time>
      </trkpt>
      <trkpt lat="44.37158" lon="1.20216">
        <ele>265.46</ele>
        <time>2023-11-08T13:18:50Z</time>
      </trkpt>
      <trkpt lat="44.37163" lon="1.20203">
        <ele>265.46</ele>
        <time>2023-11-08T13:18:58Z</time>
      </trkpt>
      <trkpt lat="44.3717" lon="1.20189">
        <ele>265.46</ele>
        <time>2023-11-08T13:19:08Z</time>
      </trkpt>
      <trkpt lat="44.37175" lon="1.20176">
        <ele>265.46</ele>
        <time>2023-11-08T13:19:18Z</time>
      </trkpt>
      <trkpt lat="44.37191" lon="1.20156">
        <ele>265.46</ele>
        <time>2023-11-08T13:19:40Z</time>
      </trkpt>
      <trkpt lat="44.37199" lon="1.20151">
        <ele>265.94</ele>
        <time>2023-11-08T13:19:52Z</time>
      </trkpt>
      <trkpt lat="44.372" lon="1.20148">
        <ele>265.94</ele>
        <time>2023-11-08T13:20:25Z</time>
      </trkpt>
      <trkpt lat="44.372" lon="1.20105">
        <ele>265.94</ele>
        <time>2023-11-08T13:20:49Z</time>
      </trkpt>
      <trkpt lat="44.37196" lon="1.20075">
        <ele>265.94</ele>
        <time>2023-11-08T13:21:04Z</time>
      </trkpt>
      <trkpt lat="44.37192" lon="1.1999">
        <ele>266.42</ele>
        <time>2023-11-08T13:21:44Z</time>
      </trkpt>
      <trkpt lat="44.37193" lon="1.19963">
        <ele>266.9</ele>
        <time>2023-11-08T13:21:58Z</time>
      </trkpt>
      <trkpt lat="44.37192" lon="1.19935">
        <ele>267.38</ele>
        <time>2023-11-08T13:22:13Z</time>
      </trkpt>
      <trkpt lat="44.37205" lon="1.1985">
        <ele>268.83</ele>
        <time>2023-11-08T13:23:01Z</time>
      </trkpt>
      <trkpt lat="44.37206" lon="1.19837">
        <ele>268.83</ele>
        <time>2023-11-08T13:23:08Z</time>
      </trkpt>
      <trkpt lat="44.37212" lon="1.19825">
        <ele>269.31</ele>
        <time>2023-11-08T13:23:16Z</time>
      </trkpt>
      <trkpt lat="44.3722" lon="1.19817">
        <ele>269.31</ele>
        <time>2023-11-08T13:23:23Z</time>
      </trkpt>
      <trkpt lat="44.37229" lon="1.19817">
        <ele>269.31</ele>
        <time>2023-11-08T13:23:31Z</time>
      </trkpt>
      <trkpt lat="44.37238" lon="1.19841">
        <ele>269.31</ele>
        <time>2023-11-08T13:23:46Z</time>
      </trkpt>
      <trkpt lat="44.37264" lon="1.19899">
        <ele>266.9</ele>
        <time>2023-11-08T13:24:24Z</time>
      </trkpt>
      <trkpt lat="44.37278" lon="1.19918">
        <ele>265.94</ele>
        <time>2023-11-08T13:24:40Z</time>
      </trkpt>
      <trkpt lat="44.37287" lon="1.19927">
        <ele>265.46</ele>
        <time>2023-11-08T13:24:48Z</time>
      </trkpt>
      <trkpt lat="44.37306" lon="1.19954">
        <ele>265.94</ele>
        <time>2023-11-08T13:25:13Z</time>
      </trkpt>
      <trkpt lat="44.37313" lon="1.19959">
        <ele>266.3</ele>
        <time>2023-11-08T13:25:20Z</time>
      </trkpt>
      <trkpt lat="44.37323" lon="1.19962">
        <ele>264.5</ele>
        <time>2023-11-08T13:25:37Z</time>
      </trkpt>
      <trkpt lat="44.3734" lon="1.19972">
        <ele>264.5</ele>
        <time>2023-11-08T13:25:51Z</time>
      </trkpt>
      <trkpt lat="44.37348" lon="1.19981">
        <ele>264.02</ele>
        <time>2023-11-08T13:25:59Z</time>
      </trkpt>
      <trkpt lat="44.37355" lon="1.19991">
        <ele>264.02</ele>
        <time>2023-11-08T13:26:07Z</time>
      </trkpt>
      <trkpt lat="44.37375" lon="1.20038">
        <ele>263.06</ele>
        <time>2023-11-08T13:26:40Z</time>
      </trkpt>
      <trkpt lat="44.37393" lon="1.20073">
        <ele>262.58</ele>
        <time>2023-11-08T13:27:09Z</time>
      </trkpt>
      <trkpt lat="44.37402" lon="1.20097">
        <ele>262.1</ele>
        <time>2023-11-08T13:27:24Z</time>
      </trkpt>
      <trkpt lat="44.37446" lon="1.20187">
        <ele>260.17</ele>
        <time>2023-11-08T13:28:29Z</time>
      </trkpt>
      <trkpt lat="44.3745" lon="1.20199">
        <ele>260.17</ele>
        <time>2023-11-08T13:28:37Z</time>
      </trkpt>
      <trkpt lat="44.37461" lon="1.20222">
        <ele>260.17</ele>
        <time>2023-11-08T13:28:53Z</time>
      </trkpt>
      <trkpt lat="44.37469" lon="1.2023">
        <ele>260.17</ele>
        <time>2023-11-08T13:29:01Z</time>
      </trkpt>
      <trkpt lat="44.37475" lon="1.2024">
        <ele>260.17</ele>
        <time>2023-11-08T13:29:09Z</time>
      </trkpt>
      <trkpt lat="44.37483" lon="1.20247">
        <ele>260.17</ele>
        <time>2023-11-08T13:29:17Z</time>
      </trkpt>
      <trkpt lat="44.37488" lon="1.20257">
        <ele>260.17</ele>
        <time>2023-11-08T13:29:25Z</time>
      </trkpt>
      <trkpt lat="44.37508" lon="1.20286">
        <ele>260.17</ele>
        <time>2023-11-08T13:29:49Z</time>
      </trkpt>
      <trkpt lat="44.37516" lon="1.20295">
        <ele>261.14</ele>
        <time>2023-11-08T13:29:57Z</time>
      </trkpt>
      <trkpt lat="44.37522" lon="1.20304">
        <ele>261.14</ele>
        <time>2023-11-08T13:30:05Z</time>
      </trkpt>
      <trkpt lat="44.37538" lon="1.20321">
        <ele>261.14</ele>
        <time>2023-11-08T13:30:21Z</time>
      </trkpt>
      <trkpt lat="44.37563" lon="1.20341">
        <ele>261.14</ele>
        <time>2023-11-08T13:30:44Z</time>
      </trkpt>
      <trkpt lat="44.37581" lon="1.20351">
        <ele>262.58</ele>
        <time>2023-11-08T13:30:59Z</time>
      </trkpt>
      <trkpt lat="44.37598" lon="1.20359">
        <ele>263.06</ele>
        <time>2023-11-08T13:31:15Z</time>
      </trkpt>
      <trkpt lat="44.37618" lon="1.2037">
        <ele>263.06</ele>
        <time>2023-11-08T13:31:33Z</time>
      </trkpt>
      <trkpt lat="44.37627" lon="1.20378">
        <ele>261.62</ele>
        <time>2023-11-08T13:31:45Z</time>
      </trkpt>
      <trkpt lat="44.37633" lon="1.20389">
        <ele>261.14</ele>
        <time>2023-11-08T13:31:59Z</time>
      </trkpt>
      <trkpt lat="44.3764" lon="1.20397">
        <ele>260.65</ele>
        <time>2023-11-08T13:32:08Z</time>
      </trkpt>
      <trkpt lat="44.3766" lon="1.20426">
        <ele>258.73</ele>
        <time>2023-11-08T13:32:31Z</time>
      </trkpt>
      <trkpt lat="44.37672" lon="1.20447">
        <ele>258.73</ele>
        <time>2023-11-08T13:32:46Z</time>
      </trkpt>
      <trkpt lat="44.37687" lon="1.20467">
        <ele>258.73</ele>
        <time>2023-11-08T13:33:01Z</time>
      </trkpt>
      <trkpt lat="44.37712" lon="1.20506">
        <ele>258.73</ele>
        <time>2023-11-08T13:33:37Z</time>
      </trkpt>
      <trkpt lat="44.37722" lon="1.20524">
        <ele>257.77</ele>
        <time>2023-11-08T13:34:24Z</time>
      </trkpt>
      <trkpt lat="44.37736" lon="1.20544">
        <ele>257.29</ele>
        <time>2023-11-08T13:34:38Z</time>
      </trkpt>
      <trkpt lat="44.37752" lon="1.20564">
        <ele>258.73</ele>
        <time>2023-11-08T13:34:51Z</time>
      </trkpt>
      <trkpt lat="44.3778" lon="1.20602">
        <ele>259.69</ele>
        <time>2023-11-08T13:35:16Z</time>
      </trkpt>
      <trkpt lat="44.37787" lon="1.20614">
        <ele>259.69</ele>
        <time>2023-11-08T13:35:23Z</time>
      </trkpt>
      <trkpt lat="44.37794" lon="1.20622">
        <ele>260.17</ele>
        <time>2023-11-08T13:35:29Z</time>
      </trkpt>
      <trkpt lat="44.37801" lon="1.20633">
        <ele>260.17</ele>
        <time>2023-11-08T13:35:36Z</time>
      </trkpt>
      <trkpt lat="44.37815" lon="1.2065">
        <ele>261.14</ele>
        <time>2023-11-08T13:35:50Z</time>
      </trkpt>
      <trkpt lat="44.37827" lon="1.2067">
        <ele>261.62</ele>
        <time>2023-11-08T13:36:04Z</time>
      </trkpt>
      <trkpt lat="44.37862" lon="1.20719">
        <ele>264.02</ele>
        <time>2023-11-08T13:36:43Z</time>
      </trkpt>
      <trkpt lat="44.37883" lon="1.20757">
        <ele>265.46</ele>
        <time>2023-11-08T13:38:32Z</time>
      </trkpt>
      <trkpt lat="44.3791" lon="1.20802">
        <ele>268.83</ele>
        <time>2023-11-08T13:38:59Z</time>
      </trkpt>
      <trkpt lat="44.3797" lon="1.20938">
        <ele>272.19</ele>
        <time>2023-11-08T13:40:15Z</time>
      </trkpt>
      <trkpt lat="44.37977" lon="1.2095">
        <ele>272.67</ele>
        <time>2023-11-08T13:40:22Z</time>
      </trkpt>
      <trkpt lat="44.37982" lon="1.20963">
        <ele>272.67</ele>
        <time>2023-11-08T13:40:29Z</time>
      </trkpt>
      <trkpt lat="44.37994" lon="1.20989">
        <ele>273.63</ele>
        <time>2023-11-08T13:40:44Z</time>
      </trkpt>
      <trkpt lat="44.38006" lon="1.21023">
        <ele>274.11</ele>
        <time>2023-11-08T13:42:01Z</time>
      </trkpt>
      <trkpt lat="44.38012" lon="1.21029">
        <ele>274.11</ele>
        <time>2023-11-08T13:42:12Z</time>
      </trkpt>
      <trkpt lat="44.38024" lon="1.21053">
        <ele>274.11</ele>
        <time>2023-11-08T13:42:24Z</time>
      </trkpt>
      <trkpt lat="44.38035" lon="1.21081">
        <ele>275.56</ele>
        <time>2023-11-08T13:42:39Z</time>
      </trkpt>
      <trkpt lat="44.38046" lon="1.21105">
        <ele>276.04</ele>
        <time>2023-11-08T13:42:53Z</time>
      </trkpt>
      <trkpt lat="44.38051" lon="1.2112">
        <ele>276.04</ele>
        <time>2023-11-08T13:43:01Z</time>
      </trkpt>
      <trkpt lat="44.38059" lon="1.21134">
        <ele>276.04</ele>
        <time>2023-11-08T13:43:09Z</time>
      </trkpt>
      <trkpt lat="44.38074" lon="1.21176">
        <ele>276.04</ele>
        <time>2023-11-08T13:43:31Z</time>
      </trkpt>
      <trkpt lat="44.38077" lon="1.21191">
        <ele>276.04</ele>
        <time>2023-11-08T13:43:38Z</time>
      </trkpt>
      <trkpt lat="44.38085" lon="1.21218">
        <ele>275.07</ele>
        <time>2023-11-08T13:43:53Z</time>
      </trkpt>
      <trkpt lat="44.381" lon="1.21261">
        <ele>273.63</ele>
        <time>2023-11-08T13:44:16Z</time>
      </trkpt>
      <trkpt lat="44.38118" lon="1.21325">
        <ele>273.15</ele>
        <time>2023-11-08T13:44:50Z</time>
      </trkpt>
      <trkpt lat="44.38124" lon="1.2134">
        <ele>273.15</ele>
        <time>2023-11-08T13:44:58Z</time>
      </trkpt>
      <trkpt lat="44.38128" lon="1.21355">
        <ele>273.15</ele>
        <time>2023-11-08T13:45:06Z</time>
      </trkpt>
      <trkpt lat="44.38133" lon="1.21369">
        <ele>273.15</ele>
        <time>2023-11-08T13:45:14Z</time>
      </trkpt>
      <trkpt lat="44.38137" lon="1.21386">
        <ele>273.15</ele>
        <time>2023-11-08T13:45:23Z</time>
      </trkpt>
      <trkpt lat="44.3816" lon="1.21448">
        <ele>272.19</ele>
        <time>2023-11-08T13:46:47Z</time>
      </trkpt>
      <trkpt lat="44.3817" lon="1.21487">
        <ele>270.27</ele>
        <time>2023-11-08T13:47:08Z</time>
      </trkpt>
      <trkpt lat="44.38196" lon="1.21561">
        <ele>267.86</ele>
        <time>2023-11-08T13:47:53Z</time>
      </trkpt>
      <trkpt lat="44.38213" lon="1.21624">
        <ele>266.9</ele>
        <time>2023-11-08T13:48:33Z</time>
      </trkpt>
      <trkpt lat="44.38223" lon="1.21649">
        <ele>266.9</ele>
        <time>2023-11-08T13:48:49Z</time>
      </trkpt>
      <trkpt lat="44.38225" lon="1.21662">
        <ele>266.9</ele>
        <time>2023-11-08T13:48:57Z</time>
      </trkpt>
      <trkpt lat="44.38232" lon="1.21687">
        <ele>266.9</ele>
        <time>2023-11-08T13:49:13Z</time>
      </trkpt>
      <trkpt lat="44.38241" lon="1.21712">
        <ele>269.31</ele>
        <time>2023-11-08T13:49:30Z</time>
      </trkpt>
      <trkpt lat="44.38247" lon="1.21737">
        <ele>271.71</ele>
        <time>2023-11-08T13:49:49Z</time>
      </trkpt>
      <trkpt lat="44.38249" lon="1.2175">
        <ele>272.67</ele>
        <time>2023-11-08T13:49:59Z</time>
      </trkpt>
      <trkpt lat="44.3824" lon="1.21774">
        <ele>274.11</ele>
        <time>2023-11-08T13:50:17Z</time>
      </trkpt>
      <trkpt lat="44.38223" lon="1.21808">
        <ele>275.07</ele>
        <time>2023-11-08T13:50:40Z</time>
      </trkpt>
      <trkpt lat="44.38197" lon="1.2185">
        <ele>277</ele>
        <time>2023-11-08T13:51:11Z</time>
      </trkpt>
      <trkpt lat="44.38191" lon="1.21863">
        <ele>277</ele>
        <time>2023-11-08T13:51:20Z</time>
      </trkpt>
      <trkpt lat="44.38178" lon="1.21904">
        <ele>277</ele>
        <time>2023-11-08T13:51:45Z</time>
      </trkpt>
      <trkpt lat="44.38169" lon="1.21945">
        <ele>275.56</ele>
        <time>2023-11-08T13:52:07Z</time>
      </trkpt>
      <trkpt lat="44.38157" lon="1.21974">
        <ele>275.56</ele>
        <time>2023-11-08T13:52:26Z</time>
      </trkpt>
      <trkpt lat="44.38132" lon="1.22022">
        <ele>275.07</ele>
        <time>2023-11-08T13:52:56Z</time>
      </trkpt>
      <trkpt lat="44.38119" lon="1.22044">
        <ele>275.07</ele>
        <time>2023-11-08T13:53:10Z</time>
      </trkpt>
      <trkpt lat="44.38096" lon="1.22088">
        <ele>275.07</ele>
        <time>2023-11-08T13:53:38Z</time>
      </trkpt>
      <trkpt lat="44.38062" lon="1.22181">
        <ele>276.52</ele>
        <time>2023-11-08T13:54:34Z</time>
      </trkpt>
      <trkpt lat="44.38056" lon="1.22193">
        <ele>276.52</ele>
        <time>2023-11-08T13:54:41Z</time>
      </trkpt>
      <trkpt lat="44.38042" lon="1.22213">
        <ele>277</ele>
        <time>2023-11-08T13:54:57Z</time>
      </trkpt>
      <trkpt lat="44.38042" lon="1.22225">
        <ele>277</ele>
        <time>2023-11-08T13:55:04Z</time>
      </trkpt>
      <trkpt lat="44.38038" lon="1.22238">
        <ele>277.96</ele>
        <time>2023-11-08T13:55:12Z</time>
      </trkpt>
      <trkpt lat="44.38033" lon="1.22276">
        <ele>279.4</ele>
        <time>2023-11-08T13:55:33Z</time>
      </trkpt>
      <trkpt lat="44.38025" lon="1.22301">
        <ele>276.52</ele>
        <time>2023-11-08T13:55:50Z</time>
      </trkpt>
      <trkpt lat="44.38022" lon="1.22315">
        <ele>275.07</ele>
        <time>2023-11-08T13:55:59Z</time>
      </trkpt>
      <trkpt lat="44.38023" lon="1.22323">
        <ele>274.59</ele>
        <time>2023-11-08T13:56:14Z</time>
      </trkpt>
      <trkpt lat="44.38028" lon="1.22334">
        <ele>274.59</ele>
        <time>2023-11-08T13:56:21Z</time>
      </trkpt>
      <trkpt lat="44.38032" lon="1.22346">
        <ele>274.11</ele>
        <time>2023-11-08T13:56:29Z</time>
      </trkpt>
      <trkpt lat="44.38033" lon="1.22373">
        <ele>273.15</ele>
        <time>2023-11-08T13:56:44Z</time>
      </trkpt>
      <trkpt lat="44.38029" lon="1.22403">
        <ele>272.19</ele>
        <time>2023-11-08T13:57:01Z</time>
      </trkpt>
      <trkpt lat="44.38019" lon="1.22442">
        <ele>270.75</ele>
        <time>2023-11-08T13:57:23Z</time>
      </trkpt>
      <trkpt lat="44.38011" lon="1.22467">
        <ele>269.79</ele>
        <time>2023-11-08T13:57:37Z</time>
      </trkpt>
      <trkpt lat="44.37999" lon="1.22521">
        <ele>268.83</ele>
        <time>2023-11-08T13:58:08Z</time>
      </trkpt>
      <trkpt lat="44.37985" lon="1.22574">
        <ele>266.9</ele>
        <time>2023-11-08T13:58:40Z</time>
      </trkpt>
      <trkpt lat="44.37987" lon="1.22598">
        <ele>266.42</ele>
        <time>2023-11-08T13:59:26Z</time>
      </trkpt>
      <trkpt lat="44.37962" lon="1.22573">
        <ele>264.3</ele>
      </trkpt>
      <trkpt lat="44.37912" lon="1.22513">
        <ele>261.5</ele>
      </trkpt>
      <trkpt lat="44.37843" lon="1.2251">
        <ele>266</ele>
      </trkpt>
      <trkpt lat="44.37771" lon="1.22502">
        <ele>271.4</ele>
      </trkpt>
      <trkpt lat="44.37731" lon="1.22495">
        <ele>274.4</ele>
      </trkpt>
      <trkpt lat="44.37698" lon="1.22494">
        <ele>275.3</ele>
      </trkpt>
      <trkpt lat="44.37649" lon="1.22493">
        <ele>276</ele>
      </trkpt>
      <trkpt lat="44.37612" lon="1.22493">
        <ele>274.3</ele>
      </trkpt>
      <trkpt lat="44.37617" lon="1.2256">
        <ele>272.5</ele>
      </trkpt>
      <trkpt lat="44.37613" lon="1.22646">
        <ele>270.4</ele>
      </trkpt>
      <trkpt lat="44.37577" lon="1.22755">
        <ele>264.5</ele>
      </trkpt>
      <trkpt lat="44.37484" lon="1.22858">
        <ele>256</ele>
      </trkpt>
      <trkpt lat="44.37418" lon="1.2292">
        <ele>250.6</ele>
      </trkpt>
      <trkpt lat="44.37372" lon="1.23019">
        <ele>245.5</ele>
      </trkpt>
      <trkpt lat="44.37318" lon="1.23075">
        <ele>241.9</ele>
      </trkpt>
      <trkpt lat="44.3726" lon="1.2315">
        <ele>236.4</ele>
      </trkpt>
      <trkpt lat="44.37257" lon="1.23186">
        <ele>236</ele>
      </trkpt>
      <trkpt lat="44.37242" lon="1.23212">
        <ele>233</ele>
      </trkpt>
      <trkpt lat="44.37214" lon="1.23233">
        <ele>230.8</ele>
      </trkpt>
      <trkpt lat="44.37183" lon="1.2327">
        <ele>227.5</ele>
      </trkpt>
      <trkpt lat="44.37152" lon="1.23356">
        <ele>221.8</ele>
      </trkpt>
      <trkpt lat="44.37137" lon="1.23446">
        <ele>221.4</ele>
      </trkpt>
      <trkpt lat="44.37123" lon="1.23545">
        <ele>218.9</ele>
      </trkpt>
      <trkpt lat="44.37118" lon="1.23673">
        <ele>211</ele>
      </trkpt>
      <trkpt lat="44.37136" lon="1.23922">
        <ele>192.6</ele>
      </trkpt>
      <trkpt lat="44.37123" lon="1.23925">
        <ele>198.65</ele>
        <time>2023-11-08T14:58:44Z</time>
      </trkpt>
      <trkpt lat="44.37114" lon="1.23924">
        <ele>198.65</ele>
        <time>2023-11-08T14:58:51Z</time>
      </trkpt>
      <trkpt lat="44.37076" lon="1.23926">
        <ele>198.17</ele>
        <time>2023-11-08T14:59:20Z</time>
      </trkpt>
      <trkpt lat="44.37066" lon="1.23928">
        <ele>198.17</ele>
        <time>2023-11-08T14:59:27Z</time>
      </trkpt>
      <trkpt lat="44.37026" lon="1.23929">
        <ele>195.77</ele>
        <time>2023-11-08T14:59:55Z</time>
      </trkpt>
      <trkpt lat="44.37017" lon="1.2393">
        <ele>195.28</ele>
        <time>2023-11-08T15:00:02Z</time>
      </trkpt>
      <trkpt lat="44.36996" lon="1.23928">
        <ele>193.84</ele>
        <time>2023-11-08T15:00:17Z</time>
      </trkpt>
      <trkpt lat="44.36987" lon="1.23925">
        <ele>193.36</ele>
        <time>2023-11-08T15:00:24Z</time>
      </trkpt>
      <trkpt lat="44.36978" lon="1.23925">
        <ele>192.88</ele>
        <time>2023-11-08T15:00:31Z</time>
      </trkpt>
      <trkpt lat="44.36968" lon="1.23922">
        <ele>192.88</ele>
        <time>2023-11-08T15:00:38Z</time>
      </trkpt>
      <trkpt lat="44.36951" lon="1.23912">
        <ele>192.88</ele>
        <time>2023-11-08T15:00:51Z</time>
      </trkpt>
      <trkpt lat="44.36935" lon="1.23899">
        <ele>192.88</ele>
        <time>2023-11-08T15:01:05Z</time>
      </trkpt>
      <trkpt lat="44.36882" lon="1.23863">
        <ele>193.84</ele>
        <time>2023-11-08T15:01:47Z</time>
      </trkpt>
      <trkpt lat="44.36856" lon="1.23841">
        <ele>194.8</ele>
        <time>2023-11-08T15:02:09Z</time>
      </trkpt>
      <trkpt lat="44.36848" lon="1.23836">
        <ele>194.8</ele>
        <time>2023-11-08T15:02:16Z</time>
      </trkpt>
      <trkpt lat="44.36832" lon="1.23822">
        <ele>196.25</ele>
        <time>2023-11-08T15:02:31Z</time>
      </trkpt>
      <trkpt lat="44.36812" lon="1.23814">
        <ele>196.25</ele>
        <time>2023-11-08T15:02:45Z</time>
      </trkpt>
      <trkpt lat="44.36793" lon="1.23809">
        <ele>194.32</ele>
        <time>2023-11-08T15:02:59Z</time>
      </trkpt>
      <trkpt lat="44.36773" lon="1.23806">
        <ele>193.84</ele>
        <time>2023-11-08T15:03:13Z</time>
      </trkpt>
      <trkpt lat="44.36753" lon="1.23806">
        <ele>193.84</ele>
        <time>2023-11-08T15:03:28Z</time>
      </trkpt>
      <trkpt lat="44.36744" lon="1.23807">
        <ele>193.84</ele>
        <time>2023-11-08T15:03:35Z</time>
      </trkpt>
      <trkpt lat="44.36724" lon="1.23812">
        <ele>195.28</ele>
        <time>2023-11-08T15:03:50Z</time>
      </trkpt>
      <trkpt lat="44.36714" lon="1.23813">
        <ele>195.28</ele>
        <time>2023-11-08T15:03:58Z</time>
      </trkpt>
      <trkpt lat="44.36705" lon="1.23816">
        <ele>195.28</ele>
        <time>2023-11-08T15:04:06Z</time>
      </trkpt>
      <trkpt lat="44.36685" lon="1.23819">
        <ele>197.69</ele>
        <time>2023-11-08T15:04:23Z</time>
      </trkpt>
      <trkpt lat="44.36674" lon="1.23819">
        <ele>198.17</ele>
        <time>2023-11-08T15:04:32Z</time>
      </trkpt>
      <trkpt lat="44.36612" lon="1.23808">
        <ele>196.25</ele>
        <time>2023-11-08T15:05:21Z</time>
      </trkpt>
      <trkpt lat="44.36603" lon="1.23801">
        <ele>195.28</ele>
        <time>2023-11-08T15:05:29Z</time>
      </trkpt>
      <trkpt lat="44.36586" lon="1.23783">
        <ele>193.84</ele>
        <time>2023-11-08T15:05:45Z</time>
      </trkpt>
      <trkpt lat="44.36571" lon="1.23763">
        <ele>193.84</ele>
        <time>2023-11-08T15:06:01Z</time>
      </trkpt>
      <trkpt lat="44.36563" lon="1.23754">
        <ele>193.84</ele>
        <time>2023-11-08T15:06:09Z</time>
      </trkpt>
      <trkpt lat="44.36554" lon="1.23746">
        <ele>193.84</ele>
        <time>2023-11-08T15:06:17Z</time>
      </trkpt>
      <trkpt lat="44.36544" lon="1.23742">
        <ele>193.84</ele>
        <time>2023-11-08T15:06:25Z</time>
      </trkpt>
      <trkpt lat="44.36525" lon="1.23748">
        <ele>193.84</ele>
        <time>2023-11-08T15:06:41Z</time>
      </trkpt>
      <trkpt lat="44.36516" lon="1.23753">
        <ele>193.84</ele>
        <time>2023-11-08T15:06:49Z</time>
      </trkpt>
      <trkpt lat="44.36506" lon="1.23756">
        <ele>193.84</ele>
        <time>2023-11-08T15:06:57Z</time>
      </trkpt>
      <trkpt lat="44.36488" lon="1.23758">
        <ele>196.25</ele>
        <time>2023-11-08T15:07:13Z</time>
      </trkpt>
      <trkpt lat="44.36467" lon="1.23756">
        <ele>197.21</ele>
        <time>2023-11-08T15:07:31Z</time>
      </trkpt>
      <trkpt lat="44.36445" lon="1.23749">
        <ele>198.65</ele>
        <time>2023-11-08T15:07:49Z</time>
      </trkpt>
      <trkpt lat="44.36426" lon="1.2374">
        <ele>198.65</ele>
        <time>2023-11-08T15:08:06Z</time>
      </trkpt>
      <trkpt lat="44.36416" lon="1.23734">
        <ele>199.13</ele>
        <time>2023-11-08T15:08:15Z</time>
      </trkpt>
      <trkpt lat="44.36399" lon="1.2372">
        <ele>200.09</ele>
        <time>2023-11-08T15:08:34Z</time>
      </trkpt>
      <trkpt lat="44.3638" lon="1.23708">
        <ele>202.49</ele>
        <time>2023-11-08T15:08:53Z</time>
      </trkpt>
      <trkpt lat="44.3637" lon="1.237">
        <ele>202.98</ele>
        <time>2023-11-08T15:09:03Z</time>
      </trkpt>
      <trkpt lat="44.36348" lon="1.2367">
        <ele>199.61</ele>
        <time>2023-11-08T15:09:29Z</time>
      </trkpt>
      <trkpt lat="44.36334" lon="1.23646">
        <ele>198.17</ele>
        <time>2023-11-08T15:09:46Z</time>
      </trkpt>
      <trkpt lat="44.36326" lon="1.23636">
        <ele>197.21</ele>
        <time>2023-11-08T15:09:55Z</time>
      </trkpt>
      <trkpt lat="44.36319" lon="1.23625">
        <ele>197.21</ele>
        <time>2023-11-08T15:10:03Z</time>
      </trkpt>
      <trkpt lat="44.3631" lon="1.23616">
        <ele>196.73</ele>
        <time>2023-11-08T15:10:12Z</time>
      </trkpt>
      <trkpt lat="44.36291" lon="1.23604">
        <ele>195.77</ele>
        <time>2023-11-08T15:10:31Z</time>
      </trkpt>
      <trkpt lat="44.36279" lon="1.23599">
        <ele>195.77</ele>
        <time>2023-11-08T15:10:42Z</time>
      </trkpt>
      <trkpt lat="44.36269" lon="1.23588">
        <ele>195.77</ele>
        <time>2023-11-08T15:10:52Z</time>
      </trkpt>
      <trkpt lat="44.36243" lon="1.23568">
        <ele>195.28</ele>
        <time>2023-11-08T15:11:14Z</time>
      </trkpt>
      <trkpt lat="44.36231" lon="1.23561">
        <ele>195.28</ele>
        <time>2023-11-08T15:11:24Z</time>
      </trkpt>
      <trkpt lat="44.3622" lon="1.23552">
        <ele>196.73</ele>
        <time>2023-11-08T15:11:34Z</time>
      </trkpt>
      <trkpt lat="44.3621" lon="1.23546">
        <ele>196.25</ele>
        <time>2023-11-08T15:11:43Z</time>
      </trkpt>
      <trkpt lat="44.36186" lon="1.23538">
        <ele>196.25</ele>
        <time>2023-11-08T15:12:02Z</time>
      </trkpt>
      <trkpt lat="44.36162" lon="1.2352">
        <ele>194.32</ele>
        <time>2023-11-08T15:12:35Z</time>
      </trkpt>
      <trkpt lat="44.36154" lon="1.23507">
        <ele>194.32</ele>
        <time>2023-11-08T15:12:45Z</time>
      </trkpt>
      <trkpt lat="44.36149" lon="1.23495">
        <ele>193.84</ele>
        <time>2023-11-08T15:12:53Z</time>
      </trkpt>
      <trkpt lat="44.36143" lon="1.23484">
        <ele>193.84</ele>
        <time>2023-11-08T15:13:01Z</time>
      </trkpt>
      <trkpt lat="44.36138" lon="1.23468">
        <ele>193.84</ele>
        <time>2023-11-08T15:13:10Z</time>
      </trkpt>
      <trkpt lat="44.36126" lon="1.23442">
        <ele>194.8</ele>
        <time>2023-11-08T15:13:28Z</time>
      </trkpt>
      <trkpt lat="44.3612" lon="1.23426">
        <ele>194.8</ele>
        <time>2023-11-08T15:13:37Z</time>
      </trkpt>
      <trkpt lat="44.36107" lon="1.23365">
        <ele>191.92</ele>
        <time>2023-11-08T15:14:15Z</time>
      </trkpt>
      <trkpt lat="44.3609" lon="1.23318">
        <ele>188.56</ele>
        <time>2023-11-08T15:14:42Z</time>
      </trkpt>
      <trkpt lat="44.36086" lon="1.23303">
        <ele>188.08</ele>
        <time>2023-11-08T15:14:50Z</time>
      </trkpt>
      <trkpt lat="44.3608" lon="1.23292">
        <ele>186.15</ele>
        <time>2023-11-08T15:15:00Z</time>
      </trkpt>
      <trkpt lat="44.36071" lon="1.23265">
        <ele>185.19</ele>
        <time>2023-11-08T15:15:16Z</time>
      </trkpt>
      <trkpt lat="44.36065" lon="1.23253">
        <ele>184.71</ele>
        <time>2023-11-08T15:15:24Z</time>
      </trkpt>
      <trkpt lat="44.36033" lon="1.23227">
        <ele>181.83</ele>
        <time>2023-11-08T15:15:52Z</time>
      </trkpt>
      <trkpt lat="44.35989" lon="1.23202">
        <ele>177.98</ele>
        <time>2023-11-08T15:16:30Z</time>
      </trkpt>
      <trkpt lat="44.35931" lon="1.23181">
        <ele>175.1</ele>
        <time>2023-11-08T15:17:12Z</time>
      </trkpt>
      <trkpt lat="44.35914" lon="1.23173">
        <ele>174.62</ele>
        <time>2023-11-08T15:17:24Z</time>
      </trkpt>
      <trkpt lat="44.35899" lon="1.23168">
        <ele>174.14</ele>
        <time>2023-11-08T15:17:35Z</time>
      </trkpt>
      <trkpt lat="44.35883" lon="1.23157">
        <ele>173.66</ele>
        <time>2023-11-08T15:17:48Z</time>
      </trkpt>
      <trkpt lat="44.35867" lon="1.2315">
        <ele>173.66</ele>
        <time>2023-11-08T15:17:58Z</time>
      </trkpt>
      <trkpt lat="44.35854" lon="1.2314">
        <ele>173.66</ele>
        <time>2023-11-08T15:18:10Z</time>
      </trkpt>
      <trkpt lat="44.3584" lon="1.23132">
        <ele>173.17</ele>
        <time>2023-11-08T15:18:20Z</time>
      </trkpt>
      <trkpt lat="44.35826" lon="1.23122">
        <ele>173.17</ele>
        <time>2023-11-08T15:18:30Z</time>
      </trkpt>
      <trkpt lat="44.3582" lon="1.23116">
        <ele>172.69</ele>
        <time>2023-11-08T15:18:36Z</time>
      </trkpt>
      <trkpt lat="44.35811" lon="1.23097">
        <ele>172.69</ele>
        <time>2023-11-08T15:18:50Z</time>
      </trkpt>
      <trkpt lat="44.35794" lon="1.23067">
        <ele>172.69</ele>
        <time>2023-11-08T15:19:12Z</time>
      </trkpt>
      <trkpt lat="44.35786" lon="1.23059">
        <ele>172.69</ele>
        <time>2023-11-08T15:19:20Z</time>
      </trkpt>
      <trkpt lat="44.35769" lon="1.23052">
        <ele>172.21</ele>
        <time>2023-11-08T15:19:34Z</time>
      </trkpt>
      <trkpt lat="44.35759" lon="1.23051">
        <ele>172.21</ele>
        <time>2023-11-08T15:19:43Z</time>
      </trkpt>
      <trkpt lat="44.35727" lon="1.2304">
        <ele>171.73</ele>
        <time>2023-11-08T15:20:09Z</time>
      </trkpt>
      <trkpt lat="44.35718" lon="1.23032">
        <ele>171.73</ele>
        <time>2023-11-08T15:20:17Z</time>
      </trkpt>
      <trkpt lat="44.35708" lon="1.23028">
        <ele>171.73</ele>
        <time>2023-11-08T15:20:25Z</time>
      </trkpt>
      <trkpt lat="44.35691" lon="1.23018">
        <ele>171.25</ele>
        <time>2023-11-08T15:20:40Z</time>
      </trkpt>
      <trkpt lat="44.35683" lon="1.23011">
        <ele>171.25</ele>
        <time>2023-11-08T15:20:48Z</time>
      </trkpt>
      <trkpt lat="44.35674" lon="1.23006">
        <ele>170.77</ele>
        <time>2023-11-08T15:20:59Z</time>
      </trkpt>
      <trkpt lat="44.35665" lon="1.23003">
        <ele>170.77</ele>
        <time>2023-11-08T15:21:08Z</time>
      </trkpt>
      <trkpt lat="44.35654" lon="1.23006">
        <ele>170.77</ele>
        <time>2023-11-08T15:21:16Z</time>
      </trkpt>
      <trkpt lat="44.35644" lon="1.23007">
        <ele>170.77</ele>
        <time>2023-11-08T15:21:24Z</time>
      </trkpt>
      <trkpt lat="44.35626" lon="1.23003">
        <ele>170.77</ele>
        <time>2023-11-08T15:21:38Z</time>
      </trkpt>
      <trkpt lat="44.35628" lon="1.22993">
        <ele>170.77</ele>
        <time>2023-11-08T15:21:47Z</time>
      </trkpt>
      <trkpt lat="44.35628" lon="1.2298">
        <ele>170.77</ele>
        <time>2023-11-08T15:21:56Z</time>
      </trkpt>
    </trkseg>
  </trk>
</gpx>